Time;durP1;ratioP1;P1;durP2;ratioP2;P2;SDS_P1;SDS_P2;PMS_P1;PMS_P2;Temp;Humidity;BMP_temperature;BMP_pressure;BME280_temperature;BME280_humidity;BME280_pressure;Samples;Min_cycle;Max_cycle;Signal;HPM_P1;HPM_P2
2023/09/12 00:00:11;;;;;;;6.45;2.80;;;;;;;15.32;76.96;63578.75;4813643;29;20239;-75
2023/09/12 00:02:38;;;;;;;2.67;2.47;;;;;;;15.25;77.37;63571.47;4808938;29;20216;-76
2023/09/12 00:05:05;;;;;;;2.55;2.35;;;;;;;15.22;77.71;63570.38;4815173;29;20230;-76
2023/09/12 00:07:32;;;;;;;3.20;2.85;;;;;;;15.22;78.61;63570.38;4817058;29;20237;-74
2023/09/12 00:10:00;;;;;;;2.75;2.45;;;;;;;15.22;78.68;63567.81;4804404;29;20257;-75
2023/09/12 00:12:26;;;;;;;2.75;2.55;;;;;;;15.17;79.67;63562.63;4818412;29;20271;-77
2023/09/12 00:14:55;;;;;;;5.57;3.17;;;;;;;15.15;79.20;63563.63;4816530;29;20248;-74
2023/09/12 00:17:22;;;;;;;3.95;3.35;;;;;;;15.17;79.67;63570.84;4816266;29;20224;-76
2023/09/12 00:19:49;;;;;;;4.25;2.88;;;;;;;15.07;80.02;63555.31;4812915;29;20254;-75
2023/09/12 00:22:15;;;;;;;3.95;3.25;;;;;;;15.11;79.08;63556.38;4814533;29;20213;-74
2023/09/12 00:24:43;;;;;;;3.50;2.45;;;;;;;15.13;79.05;63566.69;4816820;29;20249;-74
2023/09/12 00:27:09;;;;;;;4.15;3.33;;;;;;;15.12;79.79;63560.50;4805297;29;20435;-75
2023/09/12 00:29:36;;;;;;;7.32;2.70;;;;;;;15.10;80.16;63561.00;4811779;29;20221;-74
2023/09/12 00:32:05;;;;;;;5.43;2.50;;;;;;;15.05;80.62;63550.66;4811529;29;20210;-75
2023/09/12 00:34:32;;;;;;;6.35;2.80;;;;;;;15.11;81.00;63561.50;4827606;29;20327;-75
2023/09/12 00:36:58;;;;;;;6.95;2.92;;;;;;;15.11;81.60;63556.91;4800204;29;20213;-76
2023/09/12 00:39:25;;;;;;;7.05;2.78;;;;;;;15.06;81.72;63557.34;4814633;29;20548;-75
2023/09/12 00:41:52;;;;;;;6.43;3.63;;;;;;;15.04;81.62;63557.84;4813730;29;20480;-74
2023/09/12 00:44:19;;;;;;;4.03;2.70;;;;;;;14.98;81.36;63543.91;4814245;29;20201;-75
2023/09/12 00:46:49;;;;;;;5.40;2.90;;;;;;;15.00;80.89;63545.47;4814649;29;20245;-75
2023/09/12 00:49:19;;;;;;;7.25;2.83;;;;;;;15.01;81.14;63554.72;4811751;29;20214;-75
2023/09/12 00:51:46;;;;;;;2.65;2.35;;;;;;;14.96;81.00;63546.97;4814732;29;20587;-74
2023/09/12 00:54:13;;;;;;;3.35;2.83;;;;;;;15.00;80.44;63548.03;4805501;29;20414;-76
2023/09/12 00:56:40;;;;;;;3.58;2.47;;;;;;;15.01;81.10;63549.59;4802922;29;20251;-75
2023/09/12 00:59:08;;;;;;;5.25;2.92;;;;;;;14.95;80.46;63545.94;4813845;29;20210;-74
2023/09/12 01:01:36;;;;;;;3.13;2.88;;;;;;;15.02;80.93;63552.69;4814344;29;20275;-74
2023/09/12 01:04:03;;;;;;;3.30;2.70;;;;;;;14.96;81.06;63543.91;4810445;29;20217;-74
2023/09/12 01:06:34;;;;;;;2.97;2.65;;;;;;;14.89;82.56;63541.75;4811498;29;20229;-75
2023/09/12 01:09:01;;;;;;;5.05;2.30;;;;;;;14.92;81.88;63542.28;4814239;29;20452;-74
2023/09/12 01:11:30;;;;;;;4.63;2.78;;;;;;;14.92;81.46;63540.25;4810552;29;20233;-76
2023/09/12 01:13:57;;;;;;;1.95;1.88;;;;;;;14.91;81.92;63541.25;4813346;29;20211;-74
2023/09/12 01:16:23;;;;;;;2.88;2.67;;;;;;;14.86;82.20;63534.00;4804314;29;20250;-76
2023/09/12 01:18:51;;;;;;;4.45;2.78;;;;;;;14.86;82.40;63536.56;4808150;29;20456;-76
2023/09/12 01:21:58;;;;;;;3.13;2.75;;;;;;;14.82;82.77;63529.84;4807731;29;20283;-75
2023/09/12 01:24:55;;;;;;;3.60;2.42;;;;;;;14.81;83.18;63533.44;4809418;29;20285;-74
2023/09/12 01:27:28;;;;;;;4.15;2.97;;;;;;;14.80;83.82;63530.34;4810743;29;20213;-75
2023/09/12 01:29:58;;;;;;;3.47;2.90;;;;;;;14.78;84.00;63528.28;4812014;29;20416;-74
2023/09/12 01:32:25;;;;;;;2.75;2.55;;;;;;;14.72;84.13;63516.41;4818113;29;20224;-74
2023/09/12 01:34:52;;;;;;;4.20;2.75;;;;;;;14.65;84.34;63514.25;4817296;29;20246;-74
2023/09/12 01:37:19;;;;;;;4.38;3.17;;;;;;;14.62;85.03;63513.69;4818205;29;20229;-75
2023/09/12 01:39:46;;;;;;;3.42;3.13;;;;;;;14.60;85.32;63503.94;4815416;29;20351;-76
2023/09/12 01:42:15;;;;;;;4.10;2.50;;;;;;;14.60;85.38;63506.50;4821329;29;20209;-75
2023/09/12 01:44:44;;;;;;;3.85;2.63;;;;;;;14.55;85.35;63501.81;4811126;29;20232;-76
2023/09/12 01:47:12;;;;;;;2.92;2.65;;;;;;;14.55;86.06;63501.81;4813783;29;20205;-75
2023/09/12 01:49:42;;;;;;;3.28;2.97;;;;;;;14.52;86.69;63495.63;4812788;29;20281;-75
2023/09/12 01:52:10;;;;;;;3.60;2.30;;;;;;;14.42;87.17;63490.88;4818577;29;20220;-74
2023/09/12 01:54:38;;;;;;;6.90;2.90;;;;;;;14.40;87.07;63483.69;4819041;29;20210;-75
2023/09/12 01:57:06;;;;;;;7.78;2.60;;;;;;;14.33;87.88;63484.09;4813376;29;20209;-75
2023/09/12 01:59:33;;;;;;;3.17;2.35;;;;;;;14.29;88.23;63469.69;4816398;29;20206;-74
2023/09/12 02:02:02;;;;;;;5.45;2.83;;;;;;;14.26;88.77;63471.69;4815727;29;20229;-74
2023/09/12 02:04:29;;;;;;;3.50;2.75;;;;;;;14.18;89.31;63465.41;4818426;29;20213;-74
2023/09/12 02:06:56;;;;;;;4.93;3.00;;;;;;;14.17;89.40;63462.31;4813615;29;20210;-74
2023/09/12 02:09:22;;;;;;;3.75;3.08;;;;;;;14.18;89.10;63460.81;4817384;29;20209;-75
2023/09/12 02:11:50;;;;;;;3.58;2.90;;;;;;;14.18;89.39;63462.84;4815641;29;20567;-75
2023/09/12 02:14:18;;;;;;;4.35;2.78;;;;;;;14.20;89.24;63464.94;4813867;29;20206;-74
2023/09/12 02:16:44;;;;;;;2.55;2.38;;;;;;;14.22;89.29;63464.97;4817710;29;20306;-76
2023/09/12 02:19:13;;;;;;;2.63;2.45;;;;;;;14.21;89.30;63466.50;4817105;29;20301;-74
2023/09/12 02:21:40;;;;;;;3.03;2.67;;;;;;;14.26;89.21;63466.56;4816306;29;20244;-75
2023/09/12 02:24:07;;;;;;;3.10;2.80;;;;;;;14.27;89.19;63472.72;4816315;29;20206;-75
2023/09/12 02:26:36;;;;;;;2.88;2.67;;;;;;;14.25;90.11;63470.66;4817977;29;20252;-76
2023/09/12 02:29:03;;;;;;;3.35;2.40;;;;;;;14.14;91.55;63464.34;4815538;29;20218;-75
2023/09/12 02:31:30;;;;;;;2.75;2.55;;;;;;;14.08;91.98;63455.53;4817036;29;20249;-74
2023/09/12 02:33:57;;;;;;;2.78;2.55;;;;;;;14.08;92.16;63455.53;4812914;29;20218;-74
2023/09/12 02:36:25;;;;;;;3.55;2.97;;;;;;;14.02;92.70;63449.31;4817343;29;20562;-74
2023/09/12 02:38:52;;;;;;;3.92;2.88;;;;;;;13.96;92.60;63437.47;4805226;29;20242;-74
2023/09/12 02:41:19;;;;;;;2.80;2.60;;;;;;;13.92;92.50;63438.94;4800287;29;20238;-75
2023/09/12 02:43:46;;;;;;;4.07;2.88;;;;;;;13.88;93.02;63427.09;4812093;29;20206;-75
2023/09/12 02:46:12;;;;;;;4.32;3.00;;;;;;;13.83;93.23;63429.59;4817229;29;20237;-74
2023/09/12 02:48:39;;;;;;;3.28;2.97;;;;;;;13.86;93.34;63428.09;4814706;29;20453;-75
2023/09/12 02:51:06;;;;;;;3.05;2.63;;;;;;;13.83;93.33;63421.91;4803147;29;20231;-74
2023/09/12 02:53:34;;;;;;;7.13;2.95;;;;;;;13.85;93.63;63426.56;4817353;29;20228;-74
2023/09/12 02:56:01;;;;;;;4.20;3.47;;;;;;;13.83;93.92;63425.00;4816548;29;20283;-74
2023/09/12 02:58:27;;;;;;;4.15;3.05;;;;;;;13.79;94.60;63423.41;4816347;29;20205;-75
2023/09/12 03:00:54;;;;;;;4.32;2.90;;;;;;;13.76;94.65;63419.75;4819425;29;20226;-74
2023/09/12 03:03:21;;;;;;;7.28;3.50;;;;;;;13.78;94.88;63419.81;4817286;29;20209;-74
2023/09/12 03:05:48;;;;;;;3.38;2.88;;;;;;;13.73;95.27;63416.66;4815046;29;20473;-74
2023/09/12 03:08:15;;;;;;;3.00;2.80;;;;;;;13.72;95.56;63418.16;4817004;29;20222;-76
2023/09/12 03:10:43;;;;;;;4.03;2.70;;;;;;;13.71;95.96;63414.56;4815747;29;20305;-75
2023/09/12 03:13:12;;;;;;;2.80;2.60;;;;;;;13.64;96.19;63407.31;4816435;29;20222;-73
2023/09/12 03:15:39;;;;;;;4.25;3.17;;;;;;;13.61;96.67;63404.19;4814944;29;20309;-75
2023/09/12 03:18:08;;;;;;;5.45;3.08;;;;;;;13.57;97.14;63397.50;4813407;29;20268;-73
2023/09/12 03:20:39;;;;;;;4.10;2.65;;;;;;;13.58;96.81;63401.09;4816313;29;20265;-75
2023/09/12 03:23:06;;;;;;;4.70;3.00;;;;;;;13.50;96.84;63390.22;4799656;29;20362;-74
2023/09/12 03:25:37;;;;;;;2.95;2.70;;;;;;;13.47;96.79;63387.13;4814891;29;20256;-75
2023/09/12 03:28:06;;;;;;;2.97;2.67;;;;;;;13.47;98.07;63390.19;4814229;29;20218;-74
2023/09/12 03:30:34;;;;;;;3.10;2.75;;;;;;;13.48;97.71;63390.69;4816037;29;20568;-75
2023/09/12 03:33:01;;;;;;;3.10;2.90;;;;;;;13.46;97.47;63388.63;4815302;29;20214;-76
2023/09/12 03:35:29;;;;;;;3.10;2.90;;;;;;;13.38;97.62;63385.44;4815455;29;20245;-74
2023/09/12 03:37:56;;;;;;;3.00;2.78;;;;;;;13.39;97.65;63381.38;4813083;29;20263;-74
2023/09/12 03:40:23;;;;;;;2.83;2.58;;;;;;;13.38;98.05;63380.31;4815334;29;20257;-75
2023/09/12 03:42:50;;;;;;;3.30;3.00;;;;;;;13.40;98.26;63379.84;4813924;29;20289;-75
2023/09/12 03:45:19;;;;;;;3.40;3.20;;;;;;;13.44;98.03;63389.13;4809754;29;20224;-76
2023/09/12 03:47:46;;;;;;;3.97;2.90;;;;;;;13.46;98.11;63383.53;4811131;29;20218;-74
2023/09/12 03:50:14;;;;;;;4.35;2.75;;;;;;;13.45;97.87;63387.59;4816302;29;20238;-75
2023/09/12 03:52:41;;;;;;;3.05;2.85;;;;;;;13.41;98.25;63378.31;4812664;29;20210;-74
2023/09/12 03:55:08;;;;;;;3.80;3.50;;;;;;;13.41;98.25;63383.44;4808953;29;20228;-75
2023/09/12 03:57:35;;;;;;;6.35;3.60;;;;;;;13.38;98.23;63378.28;4815948;29;20263;-73
2023/09/12 04:00:05;;;;;;;4.13;3.70;;;;;;;13.39;98.65;63384.44;4817814;29;20533;-74
2023/09/12 04:02:34;;;;;;;3.45;3.17;;;;;;;13.39;98.73;63381.38;4810143;29;20214;-74
2023/09/12 04:05:00;;;;;;;4.90;3.45;;;;;;;13.38;98.79;63382.88;4810763;29;20476;-75
2023/09/12 04:07:27;;;;;;;5.30;3.47;;;;;;;13.39;99.08;63383.94;4816875;29;20225;-73
2023/09/12 04:09:54;;;;;;;8.73;3.60;;;;;;;13.34;99.60;63374.13;4811713;29;20229;-74
2023/09/12 04:12:21;;;;;;;4.03;3.22;;;;;;;13.31;99.89;63373.06;4810370;29;20249;-74
2023/09/12 04:14:51;;;;;;;3.83;3.40;;;;;;;13.29;100.00;63368.44;4815810;29;20390;-73
2023/09/12 04:17:18;;;;;;;5.30;3.25;;;;;;;13.30;100.00;63377.69;4813292;29;20269;-74
2023/09/12 04:19:46;;;;;;;4.15;3.28;;;;;;;13.28;100.00;63369.97;4811095;29;20289;-74
2023/09/12 04:22:14;;;;;;;5.10;2.97;;;;;;;13.29;100.00;63371.50;4808604;29;20206;-74
2023/09/12 04:24:41;;;;;;;4.30;3.20;;;;;;;13.32;100.00;63374.63;4813377;29;20226;-74
2023/09/12 04:27:08;;;;;;;5.80;3.53;;;;;;;13.35;100.00;63377.22;4813658;29;20210;-74
2023/09/12 04:29:35;;;;;;;5.40;4.05;;;;;;;13.37;100.00;63381.84;4810315;29;20255;-74
2023/09/12 04:32:03;;;;;;;6.80;4.40;;;;;;;13.41;100.00;63380.88;4810585;29;20221;-74
2023/09/12 04:34:30;;;;;;;6.20;3.83;;;;;;;13.59;100.00;63404.69;4810307;29;20460;-74
2023/09/12 04:36:59;;;;;;;6.03;3.80;;;;;;;13.64;100.00;63404.75;4811284;29;20286;-75
2023/09/12 04:39:26;;;;;;;8.32;3.47;;;;;;;13.73;100.00;63414.63;4816042;29;20439;-74
2023/09/12 04:41:52;;;;;;;6.43;3.67;;;;;;;13.82;100.00;63428.56;4815885;29;20248;-74
2023/09/12 04:44:22;;;;;;;3.90;3.30;;;;;;;13.99;100.00;63443.13;4810609;29;20270;-74
2023/09/12 04:46:49;;;;;;;3.70;3.42;;;;;;;14.05;100.00;63447.31;4809451;29;20287;-75
2023/09/12 04:49:16;;;;;;;3.75;3.33;;;;;;;14.11;100.00;63453.03;4798243;30;20412;-74
2023/09/12 04:51:43;;;;;;;3.08;2.83;;;;;;;14.21;99.98;63471.09;4797584;29;20402;-75
2023/09/12 04:54:12;;;;;;;3.03;2.83;;;;;;;14.32;97.80;63477.94;4812975;29;20201;-75
2023/09/12 04:56:39;;;;;;;4.20;3.17;;;;;;;14.39;97.77;63480.06;4812426;29;20245;-75
2023/09/12 04:59:06;;;;;;;4.07;3.60;;;;;;;14.48;96.61;63491.47;4818779;29;20220;-75
2023/09/12 05:01:34;;;;;;;3.30;2.97;;;;;;;14.57;94.49;63503.38;4815227;29;20289;-74
2023/09/12 05:04:01;;;;;;;4.95;2.80;;;;;;;14.55;96.13;63503.84;4816094;29;20210;-74
2023/09/12 05:06:28;;;;;;;3.78;3.47;;;;;;;14.67;94.51;63514.28;4812722;29;20230;-74
2023/09/12 05:08:55;;;;;;;4.05;3.65;;;;;;;14.76;95.51;63525.66;4814383;29;20281;-76
2023/09/12 05:11:25;;;;;;;5.45;3.85;;;;;;;14.86;95.07;63525.78;4816229;29;20259;-75
2023/09/12 05:13:52;;;;;;;4.10;3.40;;;;;;;15.01;91.49;63554.22;4812892;29;20517;-76
2023/09/12 05:16:19;;;;;;;4.75;4.10;;;;;;;15.04;92.04;63555.28;4819959;29;20541;-76
2023/09/12 05:18:49;;;;;;;9.18;4.45;;;;;;;15.18;91.29;63563.66;4816998;29;20206;-75
2023/09/12 05:21:16;;;;;;;5.80;4.22;;;;;;;15.17;92.19;63568.25;4814520;29;20242;-74
2023/09/12 05:23:42;;;;;;;7.07;4.53;;;;;;;15.26;94.50;63575.06;4812445;29;20340;-75
2023/09/12 05:26:09;;;;;;;8.80;5.28;;;;;;;15.42;93.01;63591.72;4819048;29;20222;-75
2023/09/12 05:28:38;;;;;;;7.65;4.80;;;;;;;15.36;91.57;63582.38;4815900;29;20214;-74
2023/09/12 05:31:05;;;;;;;6.10;4.35;;;;;;;15.36;90.39;63587.50;4814638;29;20239;-73
2023/09/12 05:33:32;;;;;;;5.68;4.50;;;;;;;15.51;91.71;63603.63;4813346;29;20214;-76
2023/09/12 05:35:59;;;;;;;7.63;5.22;;;;;;;15.54;90.71;63604.19;4804278;29;20305;-75
2023/09/12 05:38:26;;;;;;;9.07;4.93;;;;;;;15.78;91.36;63628.63;4818708;29;20214;-73
2023/09/12 05:40:53;;;;;;;15.23;6.00;;;;;;;15.83;88.80;63629.19;4817743;29;20236;-73
2023/09/12 05:43:20;;;;;;;10.70;5.95;;;;;;;15.87;88.74;63637.97;4810268;29;20225;-74
2023/09/12 05:45:49;;;;;;;5.65;5.07;;;;;;;16.07;87.79;63659.28;4814626;29;20282;-75
2023/09/12 05:48:15;;;;;;;7.82;4.90;;;;;;;16.28;87.89;63682.66;4802227;29;20226;-75
2023/09/12 05:50:44;;;;;;;14.75;7.47;;;;;;;16.35;87.55;63687.91;4805919;29;20369;-76
2023/09/12 05:53:11;;;;;;;6.18;5.47;;;;;;;16.40;82.02;63695.66;4810408;29;20260;-75
2023/09/12 05:55:37;;;;;;;13.60;4.75;;;;;;;16.35;80.99;63687.91;4817631;29;20269;-75
2023/09/12 05:58:06;;;;;;;12.70;4.95;;;;;;;16.28;80.42;63675.47;4804568;29;20222;-74
2023/09/12 06:00:33;;;;;;;9.43;5.25;;;;;;;16.19;81.98;63674.34;4801068;30;20226;-74
2023/09/12 06:03:01;;;;;;;10.68;5.20;;;;;;;16.34;81.32;63683.78;4812948;29;20218;-76
2023/09/12 06:05:28;;;;;;;7.95;4.80;;;;;;;16.46;79.48;63699.38;4818299;29;20233;-72
2023/09/12 06:07:55;;;;;;;10.20;4.93;;;;;;;16.44;80.45;63694.16;4818667;29;20235;-74
2023/09/12 06:10:22;;;;;;;10.38;5.20;;;;;;;16.53;80.30;63701.50;4816781;29;20333;-75
2023/09/12 06:12:50;;;;;;;10.05;4.95;;;;;;;16.64;79.65;63714.97;4816385;29;20319;-76
2023/09/12 06:15:17;;;;;;;7.55;4.63;;;;;;;16.59;77.80;63712.88;4811929;29;20286;-74
2023/09/12 06:17:44;;;;;;;11.57;5.63;;;;;;;16.69;78.58;63727.91;4800412;30;20575;-75
2023/09/12 06:20:12;;;;;;;8.50;4.95;;;;;;;16.75;78.86;63729.00;4807402;29;20232;-74
2023/09/12 06:22:39;;;;;;;7.00;5.05;;;;;;;16.81;78.49;63738.34;4811890;29;20206;-74
2023/09/12 06:25:07;;;;;;;8.15;5.10;;;;;;;16.92;77.86;63752.38;4818816;29;20261;-74
2023/09/12 06:27:34;;;;;;;6.03;5.38;;;;;;;16.94;76.46;63746.22;4804124;29;20348;-74
2023/09/12 06:30:01;;;;;;;10.10;5.38;;;;;;;17.03;75.81;63756.09;4813506;29;20237;-76
2023/09/12 06:32:28;;;;;;;9.85;5.03;;;;;;;17.11;76.21;63769.06;4800632;29;20476;-74
2023/09/12 06:34:55;;;;;;;5.97;4.93;;;;;;;17.11;74.35;63763.91;4817060;29;20305;-73
2023/09/12 06:37:23;;;;;;;9.40;5.68;;;;;;;17.12;74.74;63772.66;4808997;29;20230;-74
2023/09/12 06:39:51;;;;;;;14.30;5.32;;;;;;;17.29;75.20;63782.66;4809078;29;20280;-75
2023/09/12 06:42:18;;;;;;;10.15;5.38;;;;;;;17.47;74.08;63806.53;4817784;29;20452;-76
2023/09/12 06:44:45;;;;;;;9.52;5.22;;;;;;;17.63;73.52;63820.13;4817848;29;20240;-75
2023/09/12 06:47:13;;;;;;;8.00;5.65;;;;;;;17.71;71.70;63828.44;4817252;29;20241;-75
2023/09/12 06:49:40;;;;;;;14.90;6.53;;;;;;;17.69;69.72;63824.31;4812966;29;20209;-74
2023/09/12 06:52:09;;;;;;;5.43;4.93;;;;;;;17.85;70.66;63848.69;4818718;29;20393;-74
2023/09/12 06:54:37;;;;;;;8.90;5.65;;;;;;;17.91;68.93;63846.69;4815802;29;20255;-74
2023/09/12 06:57:06;;;;;;;13.15;5.47;;;;;;;18.01;68.80;63860.22;4814961;29;20304;-75
2023/09/12 06:59:33;;;;;;;7.68;4.80;;;;;;;18.12;68.09;63873.72;4815572;29;20216;-75
2023/09/12 07:02:00;;;;;;;8.05;5.53;;;;;;;18.01;65.29;63859.69;4816014;29;20217;-73
2023/09/12 07:04:27;;;;;;;10.23;4.78;;;;;;;17.92;65.82;63853.41;4808656;29;20239;-76
2023/09/12 07:06:54;;;;;;;18.65;5.18;;;;;;;18.12;65.94;63868.59;4815725;29;20225;-75
2023/09/12 07:09:21;;;;;;;11.30;5.40;;;;;;;18.15;64.85;63879.44;4815133;29;20286;-74
2023/09/12 07:11:49;;;;;;;10.50;5.18;;;;;;;18.29;62.83;63891.94;4817158;29;20250;-73
2023/09/12 07:14:16;;;;;;;8.02;4.53;;;;;;;18.39;61.31;63904.44;4817419;29;20220;-75
2023/09/12 07:16:44;;;;;;;14.98;4.75;;;;;;;18.50;61.82;63910.25;4812383;29;20273;-75
2023/09/12 07:19:11;;;;;;;7.55;4.65;;;;;;;18.69;61.10;63930.03;4810337;29;20210;-74
2023/09/12 07:21:38;;;;;;;10.10;4.13;;;;;;;18.83;59.65;63945.16;4811267;29;20259;-75
2023/09/12 07:24:07;;;;;;;9.25;4.00;;;;;;;18.79;57.40;63941.00;4822021;29;20281;-75
2023/09/12 07:26:34;;;;;;;5.57;4.00;;;;;;;18.97;58.42;63959.75;4813501;29;20458;-75
2023/09/12 07:29:05;;;;;;;9.60;3.90;;;;;;;19.20;57.71;63983.72;4813084;29;20233;-75
2023/09/12 07:31:32;;;;;;;8.85;4.07;;;;;;;19.31;55.80;63995.22;4812419;29;20542;-76
2023/09/12 07:33:59;;;;;;;8.35;4.15;;;;;;;19.36;55.93;64002.50;4798887;30;20237;-74
2023/09/12 07:36:26;;;;;;;6.72;4.40;;;;;;;19.29;55.56;63992.59;4798606;30;20280;-77
2023/09/12 07:38:53;;;;;;;5.85;3.58;;;;;;;19.36;54.94;64003.00;4805700;29;20217;-77
2023/09/12 07:41:20;;;;;;;5.97;4.18;;;;;;;19.62;55.21;64021.34;4812878;29;20466;-76
2023/09/12 07:43:47;;;;;;;6.65;3.45;;;;;;;19.75;54.44;64038.00;4815166;29;20229;-76
2023/09/12 07:46:15;;;;;;;8.27;4.28;;;;;;;19.81;53.44;64046.84;4798747;29;20237;-76
2023/09/12 07:48:42;;;;;;;7.85;3.35;;;;;;;19.92;53.48;64060.38;4811005;29;20218;-76
2023/09/12 07:51:14;;;;;;;4.28;3.88;;;;;;;20.03;53.86;64069.81;4813920;29;20271;-76
2023/09/12 07:53:41;;;;;;;9.48;3.58;;;;;;;20.15;51.78;64086.97;4814482;29;20217;-75
2023/09/12 07:56:10;;;;;;;5.18;4.40;;;;;;;20.32;52.30;64096.97;4813102;29;20233;-76
2023/09/12 07:58:37;;;;;;;7.80;3.85;;;;;;;20.39;51.22;64106.84;4807656;29;20237;-74
2023/09/12 08:01:09;;;;;;;4.82;3.70;;;;;;;20.38;51.08;64103.75;4814611;29;20233;-74
2023/09/12 08:03:39;;;;;;;12.57;3.75;;;;;;;20.49;50.85;64117.28;4816553;29;20270;-75
2023/09/12 08:06:06;;;;;;;4.53;3.22;;;;;;;20.71;49.81;64142.84;4814587;29;20229;-79
2023/09/12 08:08:33;;;;;;;5.07;3.92;;;;;;;20.74;48.75;64143.41;4810193;29;20209;-75
2023/09/12 08:11:00;;;;;;;5.72;3.55;;;;;;;20.73;48.74;64141.81;4814557;29;20228;-75
2023/09/12 08:13:29;;;;;;;5.43;3.03;;;;;;;20.88;48.18;64163.19;4816550;29;20280;-77
2023/09/12 08:15:57;;;;;;;5.95;3.20;;;;;;;20.97;49.31;64167.41;4812036;29;20238;-75
2023/09/12 08:18:28;;;;;;;7.15;3.22;;;;;;;21.04;48.38;64176.78;4815017;29;20252;-75
2023/09/12 08:20:57;;;;;;;4.68;3.40;;;;;;;21.20;47.72;64185.72;4799215;29;20250;-75
2023/09/12 08:23:25;;;;;;;5.57;3.33;;;;;;;21.28;47.85;64196.66;4801800;29;20285;-75
2023/09/12 08:25:51;;;;;;;8.00;3.40;;;;;;;21.38;49.00;64212.31;4815465;29;20241;-74
2023/09/12 08:28:19;;;;;;;3.30;2.85;;;;;;;21.44;47.45;64213.38;4806562;29;20272;-76
2023/09/12 08:30:46;;;;;;;3.83;3.53;;;;;;;21.57;47.11;64227.50;4803921;29;20221;-74
2023/09/12 08:33:13;;;;;;;6.03;3.50;;;;;;;21.56;46.49;64228.50;4800655;29;20289;-76
2023/09/12 08:35:40;;;;;;;5.10;3.38;;;;;;;21.63;45.32;64238.94;4798481;29;20260;-74
2023/09/12 08:38:09;;;;;;;6.50;3.00;;;;;;;21.81;45.97;64249.47;4808504;29;20311;-75
2023/09/12 08:40:37;;;;;;;4.50;3.92;;;;;;;21.85;45.67;64260.91;4811915;29;20225;-74
2023/09/12 08:43:05;;;;;;;4.35;3.42;;;;;;;21.64;46.40;64234.81;4804036;29;20499;-76
2023/09/12 08:45:32;;;;;;;7.22;3.63;;;;;;;21.71;45.98;64244.72;4809104;29;20710;-75
2023/09/12 08:48:02;;;;;;;4.57;3.40;;;;;;;21.94;45.15;64273.44;4809273;29;20226;-76
2023/09/12 08:50:32;;;;;;;3.80;2.95;;;;;;;22.13;45.48;64295.88;4816846;29;20413;-75
2023/09/12 08:52:59;;;;;;;5.50;3.58;;;;;;;22.06;44.75;64285.44;4812156;29;20221;-76
2023/09/12 08:55:29;;;;;;;5.85;3.33;;;;;;;22.17;44.82;64294.88;4806062;29;20229;-76
2023/09/12 08:57:56;;;;;;;6.47;2.72;;;;;;;22.36;44.90;64314.22;4816061;29;20237;-77
2023/09/12 09:00:24;;;;;;;3.60;3.20;;;;;;;22.52;44.32;64333.53;4808915;29;20248;-77
2023/09/12 09:02:53;;;;;;;6.03;3.25;;;;;;;22.68;44.08;64347.69;4813567;29;20236;-76
2023/09/12 09:05:22;;;;;;;6.13;2.95;;;;;;;22.74;43.17;64351.88;4803116;29;20618;-75
2023/09/12 09:07:50;;;;;;;6.68;3.25;;;;;;;22.77;42.86;64349.81;4799045;29;20214;-75
2023/09/12 09:10:19;;;;;;;9.05;4.00;;;;;;;22.84;42.78;64359.75;4806327;29;20238;-75
2023/09/12 09:12:48;;;;;;;3.22;2.60;;;;;;;22.97;42.30;64372.28;4810567;29;20229;-76
2023/09/12 09:15:22;;;;;;;6.65;3.42;;;;;;;22.87;43.04;64370.13;4798174;29;20260;-75
2023/09/12 09:17:50;;;;;;;7.28;2.95;;;;;;;23.05;42.09;64383.25;4814101;29;20240;-74
2023/09/12 09:20:27;;;;;;;3.92;3.00;;;;;;;23.06;42.04;64390.00;4798496;29;20452;-75
2023/09/12 09:22:59;;;;;;;3.00;2.63;;;;;;;23.05;41.38;64381.19;4810465;29;20217;-74
2023/09/12 09:25:26;;;;;;;4.00;3.30;;;;;;;23.14;41.46;64392.66;4815438;29;20229;-75
2023/09/12 09:27:54;;;;;;;9.45;3.10;;;;;;;23.31;42.17;64416.19;4813129;29;20213;-76
2023/09/12 09:30:40;;;;;;;5.45;3.00;;;;;;;23.58;41.57;64438.72;4816053;29;20263;-76
2023/09/12 09:33:08;;;;;;;3.70;3.33;;;;;;;23.68;41.16;64449.69;4810928;29;20268;-76
2023/09/12 09:35:36;;;;;;;6.22;3.30;;;;;;;23.76;41.03;64458.06;4813939;29;20457;-76
2023/09/12 09:38:04;;;;;;;3.88;2.53;;;;;;;23.76;40.29;64460.66;4815419;29;20252;-74
2023/09/12 09:40:31;;;;;;;6.50;3.05;;;;;;;23.89;40.27;64474.28;4815883;29;20302;-77
2023/09/12 09:43:02;;;;;;;3.50;3.10;;;;;;;23.98;40.33;64488.38;4812793;29;20309;-76
2023/09/12 09:45:30;;;;;;;3.97;3.20;;;;;;;24.09;39.99;64494.19;4803073;29;20464;-75
2023/09/12 09:47:59;;;;;;;6.43;2.70;;;;;;;24.03;40.32;64483.22;4801952;29;20280;-74
2023/09/12 09:50:29;;;;;;;9.18;3.53;;;;;;;23.83;39.63;64467.47;4811255;29;20234;-74
2023/09/12 09:52:57;;;;;;;5.22;2.85;;;;;;;23.78;39.54;64462.75;4818946;29;20256;-74
2023/09/12 09:55:26;;;;;;;5.45;2.78;;;;;;;23.94;39.28;64476.91;4811720;29;20474;-75
2023/09/12 09:57:53;;;;;;;7.50;3.17;;;;;;;24.06;39.02;64491.03;4815864;29;20605;-75
2023/09/12 10:00:24;;;;;;;5.80;3.20;;;;;;;24.09;38.59;64491.56;4818061;29;20259;-76
2023/09/12 10:02:53;;;;;;;2.60;2.50;;;;;;;24.16;38.15;64499.41;4815790;29;20213;-77
2023/09/12 10:05:21;;;;;;;4.82;2.83;;;;;;;24.36;39.27;64520.38;4818307;29;20232;-75
2023/09/12 10:07:51;;;;;;;3.53;3.08;;;;;;;24.62;38.85;64549.66;4800650;30;20221;-74
2023/09/12 10:10:19;;;;;;;6.20;2.63;;;;;;;24.74;38.32;64559.66;4805774;29;20264;-75
2023/09/12 10:12:50;;;;;;;4.28;2.88;;;;;;;24.68;37.64;64551.25;4805800;29;20214;-74
2023/09/12 10:15:22;;;;;;;3.42;3.13;;;;;;;24.77;37.71;64563.31;4812384;29;20265;-76
2023/09/12 10:17:57;;;;;;;7.20;2.65;;;;;;;24.96;37.64;64582.69;4816073;29;20249;-75
2023/09/12 10:20:28;;;;;;;4.53;2.78;;;;;;;24.82;37.71;64575.84;4808624;29;20235;-75
2023/09/12 10:23:07;;;;;;;5.10;2.67;;;;;;;25.00;38.15;64589.47;4815351;29;20214;-75
2023/09/12 10:25:36;;;;;;;3.33;2.45;;;;;;;25.05;36.84;64594.72;4814836;29;20243;-74
2023/09/12 10:28:05;;;;;;;4.47;2.60;;;;;;;24.98;35.88;64584.78;4812329;29;20398;-75
2023/09/12 10:30:33;;;;;;;5.65;2.47;;;;;;;25.00;35.28;64592.63;4814236;29;20286;-76
2023/09/12 10:33:04;;;;;;;3.83;2.80;;;;;;;25.07;36.56;64596.81;4805923;29;20278;-77
2023/09/12 10:35:33;;;;;;;4.72;2.70;;;;;;;25.30;35.21;64620.91;4818032;29;20237;-76
2023/09/12 10:38:03;;;;;;;5.93;2.78;;;;;;;25.24;34.42;64616.69;4817939;29;20241;-74
2023/09/12 10:40:37;;;;;;;2.70;2.47;;;;;;;25.20;35.33;64609.91;4816512;29;20244;-76
2023/09/12 10:43:05;;;;;;;2.90;2.70;;;;;;;25.32;34.66;64617.25;4807710;29;20244;-75
2023/09/12 10:45:33;;;;;;;4.43;2.72;;;;;;;25.30;34.06;64623.50;4811523;29;20252;-74
2023/09/12 10:48:01;;;;;;;2.42;2.22;;;;;;;25.30;35.52;64620.38;4807581;29;20258;-74
2023/09/12 10:50:30;;;;;;;5.07;2.70;;;;;;;25.25;34.75;64620.88;4808557;29;20229;-75
2023/09/12 10:53:08;;;;;;;4.05;2.72;;;;;;;25.46;36.26;64637.69;4807707;29;20213;-74
2023/09/12 10:55:35;;;;;;;3.00;2.60;;;;;;;25.71;36.14;64658.16;4813998;29;20233;-75
2023/09/12 10:58:04;;;;;;;3.50;2.58;;;;;;;25.86;34.51;64679.63;4820265;29;20487;-75
2023/09/12 11:00:32;;;;;;;3.45;2.42;;;;;;;26.08;35.72;64705.28;4816826;29;20226;-76
2023/09/12 11:03:01;;;;;;;3.35;3.00;;;;;;;26.27;34.66;64724.16;4810516;29;20209;-76
2023/09/12 11:05:56;;;;;;;3.20;2.35;;;;;;;26.37;33.17;64729.94;4811270;29;20279;-76
2023/09/12 11:08:23;;;;;;;6.80;2.47;;;;;;;26.42;33.46;64735.19;4808770;29;20209;-75
2023/09/12 11:11:19;;;;;;;6.07;2.45;;;;;;;26.45;33.53;64740.44;4817693;29;20293;-76
2023/09/12 11:13:46;;;;;;;2.65;2.45;;;;;;;26.44;32.46;64742.00;4816966;29;20216;-75
2023/09/12 11:16:14;;;;;;;4.97;2.70;;;;;;;26.14;32.75;64711.06;4810231;29;20229;-77
2023/09/12 11:19:16;;;;;;;2.17;2.08;;;;;;;26.13;33.09;64707.94;4806992;29;20242;-76
2023/09/12 11:21:46;;;;;;;4.43;2.38;;;;;;;26.07;32.88;64704.25;4805668;29;20252;-75
2023/09/12 11:24:14;;;;;;;4.47;2.83;;;;;;;26.13;33.57;64707.94;4809877;29;20229;-75
2023/09/12 11:26:55;;;;;;;3.42;2.67;;;;;;;26.30;33.34;64722.09;4817488;29;20229;-76
2023/09/12 11:29:23;;;;;;;2.80;2.50;;;;;;;26.23;33.18;64717.38;4811564;29;20375;-74
2023/09/12 11:31:57;;;;;;;2.55;2.42;;;;;;;26.14;33.84;64708.47;4814981;29;20530;-74
2023/09/12 11:34:26;;;;;;;6.53;2.58;;;;;;;26.36;33.20;64736.22;4808074;29;20265;-74
2023/09/12 11:36:59;;;;;;;3.05;2.58;;;;;;;26.50;33.32;64748.81;4798803;29;20217;-74